createdAt,value
2018-12-13T00:02:10.767Z,17.95
2018-12-13T00:04:40.207Z,18.40
2018-12-13T00:07:09.604Z,16.40
2018-12-13T00:09:39.023Z,21.77
2018-12-13T00:12:08.223Z,22.93
2018-12-13T00:14:37.435Z,19.05
2018-12-13T00:17:06.655Z,24.75
2018-12-13T00:19:35.802Z,22.65
2018-12-13T00:22:05.402Z,19.55
2018-12-13T00:24:34.634Z,21.20
2018-12-13T00:27:03.826Z,24.37
2018-12-13T00:29:33.202Z,21.90
2018-12-13T00:32:02.489Z,20.17
2018-12-13T00:34:31.574Z,21.25
2018-12-13T00:37:00.702Z,24.45
2018-12-13T00:39:29.937Z,23.95
2018-12-13T00:41:59.089Z,21.02
2018-12-13T00:44:28.347Z,20.82
2018-12-13T00:46:57.892Z,20.23
2018-12-13T00:49:27.365Z,22.60
2018-12-13T00:51:56.634Z,19.67
2018-12-13T00:54:25.878Z,23.50
2018-12-13T00:56:55.019Z,18.62
2018-12-13T00:59:24.540Z,19.20
2018-12-13T01:01:53.652Z,17.15
2018-12-13T01:04:22.839Z,19.75
2018-12-13T01:06:52.570Z,19.42
2018-12-13T01:09:22.712Z,19.57
2018-12-13T01:11:52.399Z,21.68
2018-12-13T01:14:21.679Z,19.27
2018-12-13T01:16:51.088Z,18.75
2018-12-13T01:19:20.166Z,17.32
2018-12-13T01:21:49.378Z,20.75
2018-12-13T01:24:18.523Z,16.97
2018-12-13T01:26:47.531Z,19.25
2018-12-13T01:29:16.278Z,19.45
2018-12-13T01:31:45.479Z,19.70
2018-12-13T01:34:14.576Z,20.92
2018-12-13T01:36:43.898Z,23.70
2018-12-13T01:39:13.652Z,19.67
2018-12-13T01:41:42.934Z,21.12
2018-12-13T01:44:12.151Z,21.02
2018-12-13T01:46:41.443Z,22.80
2018-12-13T01:49:11.077Z,26.77
2018-12-13T01:51:40.349Z,26.20
2018-12-13T01:54:09.681Z,20.17
2018-12-13T01:56:38.914Z,21.80
2018-12-13T01:59:08.171Z,21.60
2018-12-13T02:01:37.534Z,21.15
2018-12-13T02:04:06.739Z,19.87
2018-12-13T02:06:35.960Z,17.60
2018-12-13T02:09:06.329Z,17.20
2018-12-13T02:11:35.739Z,18.65
2018-12-13T02:14:05.092Z,18.80
2018-12-13T02:16:34.334Z,21.50
2018-12-13T02:19:03.514Z,17.52
2018-12-13T02:21:32.880Z,21.23
2018-12-13T02:24:02.273Z,19.75
2018-12-13T02:26:31.756Z,20.57
2018-12-13T02:29:01.063Z,19.55
2018-12-13T02:31:30.219Z,20.60
2018-12-13T02:33:59.495Z,21.07
2018-12-13T02:36:28.778Z,22.98
2018-12-13T02:38:59.159Z,19.32
2018-12-13T02:41:28.880Z,23.05
2018-12-13T02:43:58.414Z,18.98
2018-12-13T02:46:27.435Z,20.80
2018-12-13T02:49:06.281Z,26.90
2018-12-13T02:51:35.491Z,23.42
2018-12-13T02:54:04.882Z,19.17
2018-12-13T02:56:34.153Z,24.02
2018-12-13T02:59:03.361Z,22.10
2018-12-13T03:01:32.738Z,22.87
2018-12-13T03:04:01.771Z,24.37
2018-12-13T03:06:31.096Z,36.42
2018-12-13T03:09:00.919Z,22.75
2018-12-13T03:11:29.988Z,23.57
2018-12-13T03:13:58.990Z,21.20
2018-12-13T03:16:28.361Z,19.10
2018-12-13T03:18:57.684Z,20.90
2018-12-13T03:21:27.094Z,22.15
2018-12-13T03:23:56.271Z,24.30
2018-12-13T03:26:25.534Z,21.73
2018-12-13T03:28:55.440Z,19.35
2018-12-13T03:31:24.794Z,22.77
2018-12-13T03:33:54.486Z,22.00
2018-12-13T03:36:23.702Z,25.12
2018-12-13T03:38:53.066Z,19.70
2018-12-13T03:41:21.867Z,20.85
2018-12-13T03:43:51.095Z,22.55
2018-12-13T03:46:20.257Z,21.87
2018-12-13T03:48:49.411Z,20.30
2018-12-13T03:51:18.431Z,24.07
2018-12-13T03:53:47.724Z,21.20
2018-12-13T03:56:17.119Z,22.70
2018-12-13T03:58:45.934Z,18.05
2018-12-13T04:01:15.369Z,24.00
2018-12-13T04:03:44.451Z,22.05
2018-12-13T04:06:13.735Z,22.77
2018-12-13T04:08:43.054Z,20.92
2018-12-13T04:11:12.172Z,25.17
2018-12-13T04:13:41.479Z,21.62
2018-12-13T04:16:10.416Z,25.43
2018-12-13T04:18:39.518Z,23.02
2018-12-13T04:21:08.698Z,24.12
2018-12-13T04:23:37.921Z,24.00
2018-12-13T04:26:07.153Z,22.02
2018-12-13T04:28:36.214Z,28.50
2018-12-13T04:31:05.552Z,24.90
2018-12-13T04:33:34.888Z,26.55
2018-12-13T04:36:04.096Z,25.27
2018-12-13T04:38:34.305Z,26.00
2018-12-13T04:41:03.550Z,27.27
2018-12-13T04:43:33.003Z,30.95
2018-12-13T04:46:02.316Z,25.88
2018-12-13T04:48:31.652Z,30.05
2018-12-13T04:51:01.097Z,28.27
2018-12-13T04:53:30.379Z,26.07
2018-12-13T04:56:00.128Z,31.95
2018-12-13T04:58:29.344Z,35.13
2018-12-13T05:00:58.212Z,27.90
2018-12-13T05:03:27.829Z,34.38
2018-12-13T05:05:57.251Z,30.77
2018-12-13T05:08:26.663Z,29.25
2018-12-13T05:10:56.131Z,34.98
2018-12-13T05:13:25.843Z,35.60
2018-12-13T05:15:55.159Z,26.45
2018-12-13T05:18:24.354Z,33.35
2018-12-13T05:20:53.398Z,32.20
2018-12-13T05:23:23.079Z,30.25
2018-12-13T05:25:52.007Z,28.25
2018-12-13T05:28:21.403Z,25.23
2018-12-13T05:30:50.773Z,30.02
2018-12-13T05:33:19.944Z,28.87
2018-12-13T05:35:48.984Z,27.15
2018-12-13T05:38:18.107Z,26.07
2018-12-13T05:40:47.360Z,31.82
2018-12-13T05:43:17.039Z,26.62
2018-12-13T05:45:46.170Z,25.68
2018-12-13T05:48:15.350Z,28.95
2018-12-13T05:50:44.343Z,30.88
2018-12-13T05:53:13.470Z,32.28
2018-12-13T05:55:43.004Z,24.52
2018-12-13T05:58:12.090Z,28.02
2018-12-13T06:00:41.570Z,27.52
2018-12-13T06:03:10.713Z,27.77
2018-12-13T06:05:39.665Z,27.07
2018-12-13T06:08:09.037Z,25.68
2018-12-13T06:10:38.694Z,28.40
2018-12-13T06:13:07.810Z,26.80
2018-12-13T06:15:37.328Z,25.72
2018-12-13T06:18:06.939Z,27.55
2018-12-13T06:20:37.154Z,29.92
2018-12-13T06:23:06.453Z,28.42
2018-12-13T06:25:35.909Z,28.10
2018-12-13T06:28:05.263Z,30.77
2018-12-13T06:30:34.732Z,30.65
2018-12-13T06:33:03.754Z,28.25
2018-12-13T06:35:33.306Z,32.28
2018-12-13T06:38:03.015Z,30.80
2018-12-13T06:40:33.868Z,29.95
2018-12-13T06:43:03.083Z,34.25
2018-12-13T06:45:32.304Z,31.87
2018-12-13T06:48:01.721Z,30.50
2018-12-13T06:50:31.012Z,31.95
2018-12-13T06:53:00.142Z,28.85
2018-12-13T06:55:29.470Z,32.85
2018-12-13T06:57:58.709Z,35.25
2018-12-13T07:00:27.656Z,31.85
2018-12-13T07:02:56.947Z,31.15
2018-12-13T07:05:26.298Z,37.55
2018-12-13T07:07:55.647Z,39.73
2018-12-13T07:10:24.991Z,37.55
2018-12-13T07:12:54.137Z,36.33
2018-12-13T07:15:23.466Z,36.03
2018-12-13T07:17:52.684Z,36.00
2018-12-13T07:20:21.922Z,36.90
2018-12-13T07:22:51.064Z,35.13
2018-12-13T07:25:20.598Z,34.70
2018-12-13T07:27:49.974Z,34.78
2018-12-13T07:30:19.130Z,34.80
2018-12-13T07:32:48.427Z,32.95
2018-12-13T07:35:17.560Z,31.20
2018-12-13T07:37:46.713Z,38.13
2018-12-13T07:40:15.975Z,32.55
2018-12-13T07:42:45.119Z,35.52
2018-12-13T07:45:14.346Z,31.27
2018-12-13T07:47:43.688Z,37.00
2018-12-13T07:50:12.850Z,36.90
2018-12-13T07:52:42.600Z,32.40
2018-12-13T07:55:11.736Z,30.90
2018-12-13T07:57:41.210Z,28.47
2018-12-13T08:00:11.280Z,32.63
2018-12-13T08:02:40.443Z,33.50
2018-12-13T08:05:10.103Z,30.75
2018-12-13T08:07:38.927Z,30.92
2018-12-13T08:10:08.120Z,31.75
2018-12-13T08:12:37.448Z,29.40
2018-12-13T08:15:06.544Z,35.40
2018-12-13T08:17:35.834Z,29.90
2018-12-13T08:20:05.753Z,36.17
2018-12-13T08:22:35.007Z,32.45
2018-12-13T08:25:04.314Z,30.55
2018-12-13T08:27:33.557Z,32.58
2018-12-13T08:30:03.122Z,34.70
2018-12-13T08:32:32.307Z,31.05
2018-12-13T08:35:01.530Z,60.50
2018-12-13T08:37:31.002Z,35.38
2018-12-13T08:40:00.202Z,30.27
2018-12-13T08:42:29.035Z,30.20
2018-12-13T08:44:58.277Z,31.37
2018-12-13T08:47:27.326Z,36.42
2018-12-13T08:49:56.693Z,38.33
2018-12-13T08:52:26.400Z,33.33
2018-12-13T08:54:55.721Z,33.23
2018-12-13T08:57:24.783Z,34.33
2018-12-13T08:59:53.833Z,32.08
2018-12-13T09:02:22.974Z,35.38
2018-12-13T09:04:52.253Z,32.95
2018-12-13T09:07:21.634Z,34.30
2018-12-13T09:09:51.122Z,34.27
2018-12-13T09:12:20.783Z,28.85
2018-12-13T09:14:50.180Z,30.37
2018-12-13T09:17:18.904Z,30.27
2018-12-13T09:19:48.298Z,32.48
2018-12-13T09:22:17.615Z,34.00
2018-12-13T09:24:46.934Z,32.65
2018-12-13T09:27:16.712Z,29.25
2018-12-13T09:29:46.369Z,30.37
2018-12-13T09:32:15.590Z,33.05
2018-12-13T09:34:44.551Z,29.75
2018-12-13T09:37:14.175Z,29.95
2018-12-13T09:39:43.354Z,31.30
2018-12-13T09:42:12.638Z,35.33
2018-12-13T09:44:41.774Z,31.93
2018-12-13T09:47:10.999Z,31.68
2018-12-13T09:49:40.075Z,31.60
2018-12-13T09:52:09.115Z,36.83
2018-12-13T09:54:38.642Z,34.05
2018-12-13T09:57:07.955Z,33.33
2018-12-13T09:59:37.304Z,29.20
2018-12-13T10:02:06.738Z,32.75
2018-12-13T10:04:36.066Z,32.63
2018-12-13T10:07:05.178Z,40.30
2018-12-13T10:09:34.358Z,35.13
2018-12-13T10:12:04.146Z,34.15
2018-12-13T10:14:33.384Z,31.73
2018-12-13T10:17:02.386Z,38.88
2018-12-13T10:19:31.546Z,37.33
2018-12-13T10:22:00.595Z,36.85
2018-12-13T10:24:29.726Z,37.73
2018-12-13T10:26:58.653Z,35.68
2018-12-13T10:29:28.243Z,38.17
2018-12-13T10:31:57.930Z,31.05
2018-12-13T10:34:27.634Z,30.30
2018-12-13T10:36:57.260Z,32.65
2018-12-13T10:39:26.203Z,32.53
2018-12-13T10:41:55.518Z,32.38
2018-12-13T10:44:29.698Z,30.62
2018-12-13T10:46:59.461Z,30.05
2018-12-13T10:49:28.591Z,32.55
2018-12-13T10:51:58.255Z,32.15
2018-12-13T10:54:27.623Z,32.48
2018-12-13T10:56:56.910Z,31.33
2018-12-13T10:59:26.559Z,33.40
2018-12-13T11:02:01.830Z,32.35
2018-12-13T11:04:31.111Z,30.30
2018-12-13T11:07:00.345Z,38.02
2018-12-13T11:09:29.224Z,40.75
2018-12-13T11:11:58.269Z,31.73
2018-12-13T11:14:27.394Z,33.73
2018-12-13T11:16:56.431Z,38.75
2018-12-13T11:19:25.845Z,38.05
2018-12-13T11:21:54.864Z,32.17
2018-12-13T11:24:23.963Z,36.25
2018-12-13T11:26:53.437Z,35.73
2018-12-13T11:29:34.389Z,34.67
2018-12-13T11:32:03.480Z,35.10
2018-12-13T11:34:32.606Z,39.78
2018-12-13T11:37:01.796Z,37.10
2018-12-13T11:39:30.835Z,39.05
2018-12-13T11:41:59.873Z,40.38
2018-12-13T11:44:29.339Z,68.62
2018-12-13T11:46:58.778Z,36.65
2018-12-13T11:49:27.906Z,37.67
2018-12-13T11:51:57.284Z,39.58
2018-12-13T11:54:44.231Z,35.65
2018-12-13T11:57:13.721Z,36.20
2018-12-13T11:59:42.982Z,37.95
2018-12-13T12:02:12.120Z,40.43
2018-12-13T12:04:41.488Z,35.17
2018-12-13T12:07:10.816Z,37.90
2018-12-13T12:09:40.095Z,37.30
2018-12-13T12:12:09.426Z,40.58
2018-12-13T12:14:39.123Z,39.33
2018-12-13T12:17:08.235Z,37.45
2018-12-13T12:19:37.302Z,39.20
2018-12-13T12:22:06.723Z,37.48
2018-12-13T12:24:35.808Z,36.93
2018-12-13T12:27:05.087Z,35.83
2018-12-13T12:29:34.232Z,33.92
2018-12-13T12:32:03.654Z,41.15
2018-12-13T12:34:32.838Z,40.23
2018-12-13T12:37:02.088Z,36.48
2018-12-13T12:39:31.212Z,46.15
2018-12-13T12:42:01.987Z,40.08
2018-12-13T12:44:35.030Z,38.25
2018-12-13T12:47:04.347Z,37.63
2018-12-13T12:49:33.569Z,44.70
2018-12-13T12:52:02.769Z,37.15
2018-12-13T12:54:32.018Z,41.60
2018-12-13T12:57:01.249Z,42.62
2018-12-13T12:59:30.526Z,45.25
2018-12-13T13:01:59.826Z,44.18
2018-12-13T13:04:29.419Z,44.77
2018-12-13T13:06:58.554Z,43.42
2018-12-13T13:09:28.049Z,39.38
2018-12-13T13:11:57.350Z,40.80
2018-12-13T13:14:26.473Z,42.88
2018-12-13T13:16:56.115Z,40.52
2018-12-13T13:19:25.595Z,44.58
2018-12-13T13:21:54.995Z,47.13
2018-12-13T13:24:24.270Z,47.38
2018-12-13T13:26:53.571Z,45.85
2018-12-13T13:29:22.644Z,45.67
2018-12-13T13:31:52.103Z,41.63
2018-12-13T13:34:21.377Z,46.85
2018-12-13T13:36:50.895Z,42.88
2018-12-13T13:39:20.062Z,48.25
2018-12-13T13:41:49.065Z,50.12
2018-12-13T13:44:18.680Z,38.63
2018-12-13T13:46:48.102Z,43.78
2018-12-13T13:49:17.415Z,43.23
2018-12-13T13:51:46.588Z,45.58
2018-12-13T13:54:15.694Z,42.10
2018-12-13T13:56:45.050Z,38.92
2018-12-13T13:59:14.202Z,45.50
2018-12-13T14:01:43.522Z,43.60
2018-12-13T14:04:12.791Z,46.90
2018-12-13T14:06:43.032Z,40.05
2018-12-13T14:09:12.435Z,43.42
2018-12-13T14:11:41.912Z,41.20
2018-12-13T14:14:11.070Z,42.73
2018-12-13T14:16:40.117Z,42.35
2018-12-13T14:19:09.408Z,41.58
2018-12-13T14:21:38.696Z,41.50
2018-12-13T14:24:08.155Z,42.25
2018-12-13T14:26:36.950Z,41.85
2018-12-13T14:29:06.186Z,43.78
2018-12-13T14:31:35.467Z,35.78
2018-12-13T14:34:04.885Z,40.55
2018-12-13T14:36:34.090Z,37.10
2018-12-13T14:39:04.448Z,43.23
2018-12-13T14:41:33.755Z,42.43
2018-12-13T14:44:03.168Z,41.77
2018-12-13T14:46:32.345Z,45.78
2018-12-13T14:49:01.495Z,44.58
2018-12-13T14:51:31.649Z,42.55
2018-12-13T14:54:00.980Z,44.45
2018-12-13T14:56:30.231Z,39.55
2018-12-13T14:58:59.636Z,39.85
2018-12-13T15:01:29.337Z,43.38
2018-12-13T15:03:58.446Z,41.40
2018-12-13T15:06:27.935Z,43.42
2018-12-13T15:08:57.275Z,43.33
2018-12-13T15:11:26.376Z,43.25
2018-12-13T15:13:55.451Z,37.93
2018-12-13T15:16:24.895Z,44.23
2018-12-13T15:18:54.045Z,38.50
2018-12-13T15:21:23.712Z,42.58
2018-12-13T15:23:53.015Z,41.70
2018-12-13T15:26:22.181Z,40.50
2018-12-13T15:28:51.275Z,44.88
2018-12-13T15:31:20.247Z,40.25
2018-12-13T15:33:49.876Z,39.23
2018-12-13T15:36:18.927Z,41.98
2018-12-13T15:38:48.375Z,37.75
2018-12-13T15:41:17.407Z,39.50
2018-12-13T15:43:46.514Z,40.85
2018-12-13T15:46:15.786Z,45.03
2018-12-13T15:48:45.406Z,37.70
2018-12-13T15:51:14.711Z,39.48
2018-12-13T15:53:44.070Z,38.50
2018-12-13T15:56:13.303Z,41.75
2018-12-13T15:58:42.739Z,37.58
2018-12-13T16:01:12.249Z,41.92
2018-12-13T16:03:41.318Z,37.88
2018-12-13T16:06:10.591Z,40.92
2018-12-13T16:08:39.834Z,34.92
2018-12-13T16:11:09.280Z,34.18
2018-12-13T16:13:38.609Z,33.10
2018-12-13T16:16:07.911Z,37.15
2018-12-13T16:18:37.055Z,37.33
2018-12-13T16:21:06.474Z,36.68
2018-12-13T16:23:35.965Z,39.75
2018-12-13T16:26:05.323Z,38.00
2018-12-13T16:28:34.624Z,34.18
2018-12-13T16:31:03.528Z,37.90
2018-12-13T16:33:32.827Z,37.05
2018-12-13T16:36:02.366Z,33.35
2018-12-13T16:38:31.761Z,38.58
2018-12-13T16:41:00.884Z,36.45
2018-12-13T16:43:30.566Z,44.75
2018-12-13T16:45:59.949Z,37.55
2018-12-13T16:48:29.016Z,35.05
2018-12-13T16:50:58.173Z,38.67
2018-12-13T16:53:27.226Z,36.30
2018-12-13T16:55:56.596Z,32.58
2018-12-13T16:58:26.000Z,36.05
2018-12-13T17:00:55.427Z,38.30
2018-12-13T17:03:38.171Z,36.95
2018-12-13T17:06:07.458Z,36.20
2018-12-13T17:08:36.595Z,34.18
2018-12-13T17:11:06.290Z,35.28
2018-12-13T17:13:35.344Z,36.50
2018-12-13T17:16:04.579Z,36.33
2018-12-13T17:18:33.885Z,39.13
2018-12-13T17:21:03.764Z,36.60
2018-12-13T17:23:32.880Z,33.13
2018-12-13T17:26:02.135Z,35.48
2018-12-13T17:28:31.494Z,35.73
2018-12-13T17:31:00.768Z,39.03
2018-12-13T17:33:30.109Z,34.35
2018-12-13T17:35:59.376Z,39.42
2018-12-13T17:38:28.549Z,40.38
2018-12-13T17:40:57.824Z,33.65
2018-12-13T17:43:26.954Z,35.80
2018-12-13T17:45:56.141Z,41.40
2018-12-13T17:48:25.189Z,36.13
2018-12-13T17:50:54.510Z,34.48
2018-12-13T17:53:23.632Z,46.45
2018-12-13T17:55:52.617Z,37.08
2018-12-13T17:58:22.224Z,32.67
2018-12-13T18:00:51.348Z,42.58
2018-12-13T18:03:20.508Z,35.90
2018-12-13T18:05:49.603Z,34.92
2018-12-13T18:08:19.225Z,37.13
2018-12-13T18:10:48.360Z,38.67
2018-12-13T18:13:17.603Z,32.55
2018-12-13T18:15:46.759Z,39.15
2018-12-13T18:18:16.430Z,39.20
2018-12-13T18:20:45.736Z,39.35
2018-12-13T18:23:15.035Z,33.00
2018-12-13T18:25:44.523Z,39.30
2018-12-13T18:28:13.854Z,31.52
2018-12-13T18:30:42.944Z,34.67
2018-12-13T18:33:12.386Z,37.33
2018-12-13T18:35:41.672Z,38.70
2018-12-13T18:38:11.411Z,31.57
2018-12-13T18:40:40.302Z,34.85
2018-12-13T18:43:09.634Z,35.85
2018-12-13T18:45:38.976Z,36.85
2018-12-13T18:48:08.086Z,31.27
2018-12-13T18:50:37.250Z,36.40
2018-12-13T18:53:06.466Z,37.42
2018-12-13T18:55:35.598Z,35.30
2018-12-13T18:58:04.565Z,37.15
2018-12-13T19:00:33.767Z,36.40
2018-12-13T19:03:02.979Z,37.13
2018-12-13T19:05:32.223Z,37.55
2018-12-13T19:08:01.239Z,35.65
2018-12-13T19:10:31.077Z,39.18
2018-12-13T19:13:00.975Z,36.42
2018-12-13T19:15:30.239Z,35.52
2018-12-13T19:17:59.437Z,41.42
2018-12-13T19:20:28.866Z,43.40
2018-12-13T19:22:58.196Z,35.95
2018-12-13T19:25:27.860Z,31.93
2018-12-13T19:27:57.105Z,37.35
2018-12-13T19:30:26.218Z,33.05
2018-12-13T19:32:55.449Z,33.88
2018-12-13T19:35:24.571Z,37.55
2018-12-13T19:37:53.786Z,39.50
2018-12-13T19:40:23.506Z,37.25
2018-12-13T19:42:52.893Z,39.65
2018-12-13T19:45:22.110Z,34.10
2018-12-13T19:47:51.347Z,34.20
2018-12-13T19:50:20.710Z,34.92
2018-12-13T19:52:49.962Z,34.35
2018-12-13T19:55:19.212Z,34.95
2018-12-13T19:57:48.284Z,33.40
2018-12-13T20:00:17.487Z,33.02
2018-12-13T20:02:46.837Z,33.65
2018-12-13T20:05:16.103Z,36.53
2018-12-13T20:07:45.432Z,37.83
2018-12-13T20:10:14.696Z,37.17
2018-12-13T20:12:44.048Z,41.63
2018-12-13T20:15:13.412Z,38.08
2018-12-13T20:17:42.654Z,37.60
2018-12-13T20:20:11.883Z,33.88
2018-12-13T20:22:41.017Z,30.95
2018-12-13T20:25:10.289Z,39.70
2018-12-13T20:27:40.308Z,32.63
2018-12-13T20:30:10.330Z,40.98
2018-12-13T20:32:39.228Z,35.33
2018-12-13T20:35:08.592Z,37.05
2018-12-13T20:37:37.637Z,34.73
2018-12-13T20:40:07.210Z,32.90
2018-12-13T20:42:36.507Z,36.55
2018-12-13T20:45:06.521Z,35.78
2018-12-13T20:47:35.781Z,35.38
2018-12-13T20:50:05.328Z,31.05
2018-12-13T20:52:34.777Z,36.15
2018-12-13T20:55:04.247Z,37.83
2018-12-13T20:57:33.607Z,37.28
2018-12-13T21:00:02.969Z,35.33
2018-12-13T21:02:32.231Z,35.15
2018-12-13T21:05:01.321Z,37.63
2018-12-13T21:07:34.427Z,43.17
2018-12-13T21:10:06.861Z,33.55
2018-12-13T21:12:36.245Z,34.73
2018-12-13T21:15:06.466Z,30.57
2018-12-13T21:17:36.156Z,34.67
2018-12-13T21:20:05.883Z,35.63
2018-12-13T21:22:35.010Z,35.05
2018-12-13T21:25:04.890Z,38.38
2018-12-13T21:27:33.883Z,31.17
2018-12-13T21:30:03.388Z,33.45
2018-12-13T21:32:32.492Z,32.67
2018-12-13T21:35:01.700Z,35.48
2018-12-13T21:37:30.985Z,31.93
2018-12-13T21:40:00.306Z,32.42
2018-12-13T21:42:30.214Z,34.18
2018-12-13T21:44:59.271Z,37.38
2018-12-13T21:47:28.584Z,39.00
2018-12-13T21:49:57.744Z,31.95
2018-12-13T21:52:26.978Z,33.58
2018-12-13T21:54:56.325Z,35.92
2018-12-13T21:57:25.802Z,38.65
2018-12-13T21:59:54.988Z,35.10
2018-12-13T22:02:23.827Z,32.75
2018-12-13T22:04:53.051Z,33.63
2018-12-13T22:07:22.179Z,33.38
2018-12-13T22:09:51.483Z,35.15
2018-12-13T22:12:20.627Z,34.50
2018-12-13T22:14:49.852Z,36.98
2018-12-13T22:17:19.104Z,36.28
2018-12-13T22:19:48.214Z,32.67
2018-12-13T22:22:17.370Z,38.17
2018-12-13T22:24:46.499Z,35.00
2018-12-13T22:27:15.911Z,35.90
2018-12-13T22:32:22.855Z,40.60
2018-12-13T22:34:52.623Z,37.85
2018-12-13T22:37:21.859Z,36.38
2018-12-13T22:39:51.160Z,35.03
2018-12-13T22:42:20.006Z,37.08
2018-12-13T22:44:49.337Z,38.15
2018-12-13T22:47:19.647Z,41.68
2018-12-13T22:49:48.718Z,34.60
2018-12-13T22:52:17.793Z,43.65
2018-12-13T22:54:46.912Z,39.00
2018-12-13T22:57:16.218Z,38.30
2018-12-13T22:59:46.426Z,38.15
2018-12-13T23:02:16.123Z,42.23
2018-12-13T23:04:45.433Z,43.55
2018-12-13T23:07:14.658Z,36.98
2018-12-13T23:09:43.715Z,40.45
2018-12-13T23:12:12.828Z,40.78
2018-12-13T23:14:42.700Z,40.45
2018-12-13T23:17:11.948Z,39.80
2018-12-13T23:19:41.031Z,42.60
2018-12-13T23:22:10.193Z,43.83
2018-12-13T23:24:39.632Z,42.05
2018-12-13T23:27:09.331Z,43.30
2018-12-13T23:29:38.261Z,41.20
2018-12-13T23:32:07.902Z,39.30
2018-12-13T23:34:38.274Z,41.90
2018-12-13T23:37:07.555Z,37.95
2018-12-13T23:39:37.096Z,36.03
2018-12-13T23:42:06.750Z,42.00
2018-12-13T23:44:36.500Z,43.63
2018-12-13T23:47:05.606Z,47.88
2018-12-13T23:49:34.828Z,39.83
2018-12-13T23:52:04.215Z,35.92
2018-12-13T23:54:33.744Z,45.12
2018-12-13T23:57:03.188Z,39.23
2018-12-13T23:59:32.360Z,39.35
